sensor_id;sensor_type;location;lat;lon;timestamp;P1;durP1;ratioP1;P2;durP2;ratioP2
31348;SDS011;17976;48.480;11.946;2023-03-01T12:50:53;16.80;;;11.02;;
31348;SDS011;17976;48.480;11.946;2023-03-01T12:53:24;15.70;;;11.65;;
31348;SDS011;17976;48.480;11.946;2023-03-01T12:55:52;17.83;;;10.70;;
31348;SDS011;17976;48.480;11.946;2023-03-01T13:01:05;13.30;;;9.93;;
31348;SDS011;17976;48.480;11.946;2023-03-01T13:08:44;14.23;;;9.63;;
31348;SDS011;17976;48.480;11.946;2023-03-01T13:11:20;14.43;;;9.93;;
31348;SDS011;17976;48.480;11.946;2023-03-01T13:13:46;13.80;;;9.48;;
31348;SDS011;17976;48.480;11.946;2023-03-01T13:19:13;15.52;;;10.90;;
31348;SDS011;17976;48.480;11.946;2023-03-01T13:21:40;13.32;;;9.38;;
31348;SDS011;17976;48.480;11.946;2023-03-01T13:37:44;12.93;;;9.27;;
31348;SDS011;17976;48.480;11.946;2023-03-01T13:45:17;13.65;;;10.02;;
31348;SDS011;17976;48.480;11.946;2023-03-01T13:47:43;13.00;;;9.00;;
31348;SDS011;17976;48.480;11.946;2023-03-01T13:50:24;15.30;;;10.43;;
31348;SDS011;17976;48.480;11.946;2023-03-01T13:53:01;13.35;;;9.65;;
31348;SDS011;17976;48.480;11.946;2023-03-01T13:55:40;18.10;;;10.35;;
31348;SDS011;17976;48.480;11.946;2023-03-01T13:58:43;12.73;;;9.25;;
31348;SDS011;17976;48.480;11.946;2023-03-01T14:01:04;14.20;;;9.70;;
31348;SDS011;17976;48.480;11.946;2023-03-01T14:03:32;14.20;;;9.27;;
31348;SDS011;17976;48.480;11.946;2023-03-01T14:08:28;15.00;;;9.95;;
31348;SDS011;17976;48.480;11.946;2023-03-01T14:21:12;16.52;;;10.27;;
31348;SDS011;17976;48.480;11.946;2023-03-01T14:23:39;17.27;;;10.13;;
31348;SDS011;17976;48.480;11.946;2023-03-01T14:26:07;15.60;;;10.27;;
31348;SDS011;17976;48.480;11.946;2023-03-01T14:28:34;15.43;;;9.93;;
31348;SDS011;17976;48.480;11.946;2023-03-01T14:31:05;14.35;;;9.90;;
31348;SDS011;17976;48.480;11.946;2023-03-01T14:33:54;19.77;;;10.05;;
31348;SDS011;17976;48.480;11.946;2023-03-01T14:36:25;15.40;;;10.10;;
31348;SDS011;17976;48.480;11.946;2023-03-01T14:38:51;16.27;;;10.10;;
31348;SDS011;17976;48.480;11.946;2023-03-01T14:41:27;13.82;;;9.88;;
31348;SDS011;17976;48.480;11.946;2023-03-01T14:44:00;15.82;;;10.00;;
31348;SDS011;17976;48.480;11.946;2023-03-01T14:48:54;18.13;;;9.52;;
31348;SDS011;17976;48.480;11.946;2023-03-01T14:51:21;12.68;;;8.80;;
31348;SDS011;17976;48.480;11.946;2023-03-01T14:53:47;13.32;;;9.23;;
31348;SDS011;17976;48.480;11.946;2023-03-01T14:56:14;13.35;;;8.35;;
31348;SDS011;17976;48.480;11.946;2023-03-01T14:58:42;14.57;;;9.60;;
31348;SDS011;17976;48.480;11.946;2023-03-01T15:01:13;15.93;;;9.15;;
31348;SDS011;17976;48.480;11.946;2023-03-01T15:03:40;16.05;;;9.40;;
31348;SDS011;17976;48.480;11.946;2023-03-01T15:06:08;15.88;;;9.20;;
31348;SDS011;17976;48.480;11.946;2023-03-01T15:08:35;17.20;;;9.02;;
31348;SDS011;17976;48.480;11.946;2023-03-01T15:13:34;15.80;;;9.18;;
31348;SDS011;17976;48.480;11.946;2023-03-01T15:16:11;14.48;;;8.57;;
31348;SDS011;17976;48.480;11.946;2023-03-01T15:18:37;13.07;;;8.32;;
31348;SDS011;17976;48.480;11.946;2023-03-01T15:21:07;14.93;;;8.75;;
31348;SDS011;17976;48.480;11.946;2023-03-01T15:23:34;13.77;;;8.38;;
31348;SDS011;17976;48.480;11.946;2023-03-01T15:26:02;17.92;;;8.65;;
31348;SDS011;17976;48.480;11.946;2023-03-01T15:28:32;14.23;;;8.45;;
31348;SDS011;17976;48.480;11.946;2023-03-01T15:31:03;15.35;;;8.35;;
31348;SDS011;17976;48.480;11.946;2023-03-01T15:33:36;14.95;;;8.60;;
31348;SDS011;17976;48.480;11.946;2023-03-01T15:36:48;14.45;;;8.43;;
31348;SDS011;17976;48.480;11.946;2023-03-01T15:38:56;12.48;;;8.10;;
31348;SDS011;17976;48.480;11.946;2023-03-01T15:43:49;12.27;;;8.23;;
31348;SDS011;17976;48.480;11.946;2023-03-01T15:48:48;19.43;;;9.57;;
31348;SDS011;17976;48.480;11.946;2023-03-01T15:51:17;18.23;;;10.10;;
31348;SDS011;17976;48.480;11.946;2023-03-01T15:53:48;15.90;;;9.65;;
31348;SDS011;17976;48.480;11.946;2023-03-01T15:56:15;17.50;;;9.57;;
31348;SDS011;17976;48.480;11.946;2023-03-01T15:58:41;20.65;;;10.57;;
31348;SDS011;17976;48.480;11.946;2023-03-01T16:01:14;18.20;;;10.38;;
31348;SDS011;17976;48.480;11.946;2023-03-01T16:03:41;20.15;;;11.40;;
31348;SDS011;17976;48.480;11.946;2023-03-01T16:06:08;19.02;;;10.57;;
31348;SDS011;17976;48.480;11.946;2023-03-01T16:08:35;17.67;;;10.65;;
31348;SDS011;17976;48.480;11.946;2023-03-01T16:11:00;17.25;;;10.50;;
31348;SDS011;17976;48.480;11.946;2023-03-01T16:13:29;19.58;;;10.73;;
31348;SDS011;17976;48.480;11.946;2023-03-01T16:15:56;17.95;;;10.95;;
31348;SDS011;17976;48.480;11.946;2023-03-01T16:18:22;21.38;;;11.95;;
31348;SDS011;17976;48.480;11.946;2023-03-01T16:20:48;19.38;;;10.85;;
31348;SDS011;17976;48.480;11.946;2023-03-01T16:23:14;22.05;;;11.20;;
31348;SDS011;17976;48.480;11.946;2023-03-01T16:25:40;19.98;;;11.75;;
31348;SDS011;17976;48.480;11.946;2023-03-01T16:28:06;22.70;;;11.73;;
31348;SDS011;17976;48.480;11.946;2023-03-01T16:30:36;21.45;;;11.30;;
31348;SDS011;17976;48.480;11.946;2023-03-01T16:33:02;22.95;;;13.30;;
31348;SDS011;17976;48.480;11.946;2023-03-01T16:35:31;26.23;;;13.80;;
31348;SDS011;17976;48.480;11.946;2023-03-01T16:37:58;24.77;;;13.75;;
31348;SDS011;17976;48.480;11.946;2023-03-01T16:40:26;24.45;;;13.80;;
31348;SDS011;17976;48.480;11.946;2023-03-01T16:42:53;23.77;;;13.57;;
31348;SDS011;17976;48.480;11.946;2023-03-01T16:45:20;27.52;;;13.80;;
31348;SDS011;17976;48.480;11.946;2023-03-01T16:47:46;30.88;;;13.10;;
31348;SDS011;17976;48.480;11.946;2023-03-01T16:50:12;27.83;;;13.95;;
31348;SDS011;17976;48.480;11.946;2023-03-01T16:52:38;26.85;;;14.52;;
31348;SDS011;17976;48.480;11.946;2023-03-01T16:55:05;25.10;;;13.93;;
31348;SDS011;17976;48.480;11.946;2023-03-01T16:57:33;28.20;;;14.20;;
31348;SDS011;17976;48.480;11.946;2023-03-01T16:59:59;25.02;;;14.85;;
31348;SDS011;17976;48.480;11.946;2023-03-01T17:02:26;24.50;;;13.13;;
31348;SDS011;17976;48.480;11.946;2023-03-01T17:04:53;25.85;;;14.40;;
31348;SDS011;17976;48.480;11.946;2023-03-01T17:07:19;27.38;;;14.38;;
31348;SDS011;17976;48.480;11.946;2023-03-01T17:09:45;27.63;;;14.90;;
31348;SDS011;17976;48.480;11.946;2023-03-01T17:12:14;29.90;;;15.75;;
31348;SDS011;17976;48.480;11.946;2023-03-01T17:14:40;26.65;;;14.88;;
31348;SDS011;17976;48.480;11.946;2023-03-01T17:17:07;22.85;;;13.95;;
31348;SDS011;17976;48.480;11.946;2023-03-01T17:19:33;29.75;;;15.82;;
31348;SDS011;17976;48.480;11.946;2023-03-01T17:22:01;27.70;;;15.00;;
31348;SDS011;17976;48.480;11.946;2023-03-01T17:24:27;24.27;;;14.00;;
31348;SDS011;17976;48.480;11.946;2023-03-01T17:26:54;26.77;;;15.27;;
31348;SDS011;17976;48.480;11.946;2023-03-01T17:29:20;29.58;;;15.40;;
31348;SDS011;17976;48.480;11.946;2023-03-01T17:31:46;31.23;;;16.77;;
31348;SDS011;17976;48.480;11.946;2023-03-01T17:34:12;29.70;;;16.08;;
31348;SDS011;17976;48.480;11.946;2023-03-01T17:36:38;30.13;;;15.82;;
31348;SDS011;17976;48.480;11.946;2023-03-01T17:39:08;33.17;;;16.05;;
31348;SDS011;17976;48.480;11.946;2023-03-01T17:41:34;30.05;;;16.55;;
31348;SDS011;17976;48.480;11.946;2023-03-01T17:44:00;31.77;;;16.23;;
31348;SDS011;17976;48.480;11.946;2023-03-01T17:46:26;32.50;;;16.25;;
31348;SDS011;17976;48.480;11.946;2023-03-01T17:48:52;32.05;;;15.88;;
31348;SDS011;17976;48.480;11.946;2023-03-01T17:51:18;30.35;;;15.30;;
31348;SDS011;17976;48.480;11.946;2023-03-01T17:53:44;40.80;;;16.98;;
31348;SDS011;17976;48.480;11.946;2023-03-01T17:56:10;35.95;;;17.30;;
31348;SDS011;17976;48.480;11.946;2023-03-01T17:58:36;27.00;;;15.55;;
31348;SDS011;17976;48.480;11.946;2023-03-01T18:01:10;29.80;;;15.93;;
31348;SDS011;17976;48.480;11.946;2023-03-01T18:03:37;30.55;;;15.35;;
31348;SDS011;17976;48.480;11.946;2023-03-01T18:06:09;34.88;;;15.30;;
31348;SDS011;17976;48.480;11.946;2023-03-01T18:08:35;31.15;;;15.18;;
31348;SDS011;17976;48.480;11.946;2023-03-01T18:11:01;27.08;;;14.88;;
31348;SDS011;17976;48.480;11.946;2023-03-01T18:13:27;27.70;;;15.05;;
31348;SDS011;17976;48.480;11.946;2023-03-01T18:15:53;29.10;;;15.75;;
31348;SDS011;17976;48.480;11.946;2023-03-01T18:18:24;32.67;;;15.52;;
31348;SDS011;17976;48.480;11.946;2023-03-01T18:20:54;30.30;;;16.17;;
31348;SDS011;17976;48.480;11.946;2023-03-01T18:23:21;33.08;;;15.60;;
31348;SDS011;17976;48.480;11.946;2023-03-01T18:25:47;33.90;;;16.17;;
31348;SDS011;17976;48.480;11.946;2023-03-01T18:28:12;29.77;;;14.90;;
31348;SDS011;17976;48.480;11.946;2023-03-01T18:30:38;31.45;;;15.35;;
31348;SDS011;17976;48.480;11.946;2023-03-01T18:33:04;34.03;;;16.10;;
31348;SDS011;17976;48.480;11.946;2023-03-01T18:35:30;35.35;;;15.95;;
31348;SDS011;17976;48.480;11.946;2023-03-01T18:38:00;28.42;;;15.25;;
31348;SDS011;17976;48.480;11.946;2023-03-01T18:40:27;31.50;;;15.70;;
31348;SDS011;17976;48.480;11.946;2023-03-01T18:42:53;30.25;;;15.82;;
31348;SDS011;17976;48.480;11.946;2023-03-01T18:45:19;30.08;;;15.27;;
31348;SDS011;17976;48.480;11.946;2023-03-01T18:47:45;29.45;;;14.25;;
31348;SDS011;17976;48.480;11.946;2023-03-01T18:50:14;26.42;;;13.95;;
31348;SDS011;17976;48.480;11.946;2023-03-01T18:52:40;27.45;;;14.75;;
31348;SDS011;17976;48.480;11.946;2023-03-01T18:55:06;28.27;;;14.43;;
31348;SDS011;17976;48.480;11.946;2023-03-01T18:57:32;28.67;;;14.00;;
31348;SDS011;17976;48.480;11.946;2023-03-01T18:59:58;28.17;;;15.32;;
31348;SDS011;17976;48.480;11.946;2023-03-01T19:02:24;27.27;;;14.32;;
31348;SDS011;17976;48.480;11.946;2023-03-01T19:04:50;26.77;;;13.68;;
31348;SDS011;17976;48.480;11.946;2023-03-01T19:07:16;25.63;;;13.27;;
31348;SDS011;17976;48.480;11.946;2023-03-01T19:09:42;35.10;;;14.27;;
31348;SDS011;17976;48.480;11.946;2023-03-01T19:12:08;26.10;;;12.48;;
31348;SDS011;17976;48.480;11.946;2023-03-01T19:14:34;30.38;;;13.35;;
31348;SDS011;17976;48.480;11.946;2023-03-01T19:17:00;28.38;;;12.27;;
31348;SDS011;17976;48.480;11.946;2023-03-01T19:19:26;22.83;;;11.52;;
31348;SDS011;17976;48.480;11.946;2023-03-01T19:21:52;23.40;;;10.65;;
31348;SDS011;17976;48.480;11.946;2023-03-01T19:24:18;26.88;;;12.05;;
31348;SDS011;17976;48.480;11.946;2023-03-01T19:26:44;21.95;;;11.38;;
31348;SDS011;17976;48.480;11.946;2023-03-01T19:29:10;22.38;;;10.35;;
31348;SDS011;17976;48.480;11.946;2023-03-01T19:31:36;23.88;;;10.63;;
31348;SDS011;17976;48.480;11.946;2023-03-01T19:34:02;20.27;;;10.85;;
31348;SDS011;17976;48.480;11.946;2023-03-01T19:36:28;21.88;;;10.63;;
31348;SDS011;17976;48.480;11.946;2023-03-01T19:38:59;21.05;;;10.20;;
31348;SDS011;17976;48.480;11.946;2023-03-01T19:41:25;24.35;;;10.65;;
31348;SDS011;17976;48.480;11.946;2023-03-01T19:43:51;21.40;;;10.13;;
31348;SDS011;17976;48.480;11.946;2023-03-01T19:46:21;21.23;;;9.80;;
31348;SDS011;17976;48.480;11.946;2023-03-01T19:48:47;24.52;;;10.77;;
31348;SDS011;17976;48.480;11.946;2023-03-01T19:51:13;18.17;;;9.60;;
31348;SDS011;17976;48.480;11.946;2023-03-01T19:53:39;21.48;;;9.82;;
31348;SDS011;17976;48.480;11.946;2023-03-01T19:56:06;21.75;;;11.27;;
31348;SDS011;17976;48.480;11.946;2023-03-01T19:58:32;21.88;;;10.40;;
31348;SDS011;17976;48.480;11.946;2023-03-01T20:00:58;24.45;;;10.90;;
31348;SDS011;17976;48.480;11.946;2023-03-01T20:03:32;21.92;;;10.10;;
31348;SDS011;17976;48.480;11.946;2023-03-01T20:05:58;19.58;;;10.07;;
31348;SDS011;17976;48.480;11.946;2023-03-01T20:08:28;20.98;;;11.00;;
31348;SDS011;17976;48.480;11.946;2023-03-01T20:11:02;28.80;;;11.32;;
31348;SDS011;17976;48.480;11.946;2023-03-01T20:13:28;21.58;;;11.25;;
31348;SDS011;17976;48.480;11.946;2023-03-01T20:15:54;22.40;;;10.35;;
31348;SDS011;17976;48.480;11.946;2023-03-01T20:18:20;27.92;;;11.80;;
31348;SDS011;17976;48.480;11.946;2023-03-01T20:20:47;22.58;;;11.20;;
31348;SDS011;17976;48.480;11.946;2023-03-01T20:23:14;24.60;;;11.02;;
31348;SDS011;17976;48.480;11.946;2023-03-01T20:25:40;26.25;;;11.60;;
31348;SDS011;17976;48.480;11.946;2023-03-01T20:28:06;25.38;;;11.32;;
31348;SDS011;17976;48.480;11.946;2023-03-01T20:30:32;24.20;;;10.85;;
31348;SDS011;17976;48.480;11.946;2023-03-01T20:32:58;24.25;;;11.57;;
31348;SDS011;17976;48.480;11.946;2023-03-01T20:35:23;23.58;;;10.85;;
31348;SDS011;17976;48.480;11.946;2023-03-01T20:37:50;22.25;;;11.52;;
31348;SDS011;17976;48.480;11.946;2023-03-01T20:40:17;25.83;;;11.63;;
31348;SDS011;17976;48.480;11.946;2023-03-01T20:42:45;27.50;;;11.10;;
31348;SDS011;17976;48.480;11.946;2023-03-01T20:45:11;23.75;;;11.80;;
31348;SDS011;17976;48.480;11.946;2023-03-01T20:47:37;30.98;;;12.35;;
31348;SDS011;17976;48.480;11.946;2023-03-01T20:50:03;25.45;;;11.55;;
31348;SDS011;17976;48.480;11.946;2023-03-01T20:52:30;23.20;;;11.65;;
31348;SDS011;17976;48.480;11.946;2023-03-01T20:54:56;27.45;;;11.90;;
31348;SDS011;17976;48.480;11.946;2023-03-01T20:57:22;28.17;;;12.35;;
31348;SDS011;17976;48.480;11.946;2023-03-01T20:59:48;25.75;;;12.23;;
